sensor_id;sensor_type;location;lat;lon;timestamp;P1;durP1;ratioP1;P2;durP2;ratioP2
68821;SDS011;55834;50.870;4.606;2024-03-08T00:01:47;18.52;;;9.82;;
68821;SDS011;55834;50.870;4.606;2024-03-08T00:04:12;16.95;;;8.55;;
68821;SDS011;55834;50.870;4.606;2024-03-08T00:06:38;18.05;;;9.23;;
68821;SDS011;55834;50.870;4.606;2024-03-08T00:09:04;17.05;;;9.73;;
68821;SDS011;55834;50.870;4.606;2024-03-08T00:11:32;16.63;;;8.95;;
68821;SDS011;55834;50.870;4.606;2024-03-08T00:13:58;18.08;;;9.05;;
68821;SDS011;55834;50.870;4.606;2024-03-08T00:16:24;22.38;;;11.07;;
68821;SDS011;55834;50.870;4.606;2024-03-08T00:18:49;18.23;;;9.37;;
68821;SDS011;55834;50.870;4.606;2024-03-08T00:21:15;19.57;;;9.23;;
68821;SDS011;55834;50.870;4.606;2024-03-08T00:23:40;17.38;;;9.52;;
68821;SDS011;55834;50.870;4.606;2024-03-08T00:26:06;18.95;;;9.45;;
68821;SDS011;55834;50.870;4.606;2024-03-08T00:28:32;16.10;;;9.15;;
68821;SDS011;55834;50.870;4.606;2024-03-08T00:30:59;17.08;;;9.02;;
68821;SDS011;55834;50.870;4.606;2024-03-08T00:33:25;17.77;;;9.63;;
68821;SDS011;55834;50.870;4.606;2024-03-08T00:35:50;19.20;;;8.93;;
68821;SDS011;55834;50.870;4.606;2024-03-08T00:38:16;20.23;;;10.97;;
68821;SDS011;55834;50.870;4.606;2024-03-08T00:40:41;17.00;;;8.60;;
68821;SDS011;55834;50.870;4.606;2024-03-08T00:43:07;21.53;;;9.57;;
68821;SDS011;55834;50.870;4.606;2024-03-08T00:45:32;20.45;;;10.85;;
68821;SDS011;55834;50.870;4.606;2024-03-08T00:47:57;19.10;;;10.23;;
68821;SDS011;55834;50.870;4.606;2024-03-08T00:50:23;17.85;;;10.23;;
68821;SDS011;55834;50.870;4.606;2024-03-08T00:52:48;19.40;;;11.43;;
68821;SDS011;55834;50.870;4.606;2024-03-08T00:55:14;16.23;;;9.75;;
68821;SDS011;55834;50.870;4.606;2024-03-08T00:57:40;20.43;;;11.23;;
68821;SDS011;55834;50.870;4.606;2024-03-08T01:00:06;14.95;;;9.40;;
68821;SDS011;55834;50.870;4.606;2024-03-08T01:02:37;18.02;;;9.43;;
68821;SDS011;55834;50.870;4.606;2024-03-08T01:05:03;19.40;;;9.65;;
68821;SDS011;55834;50.870;4.606;2024-03-08T01:07:32;21.70;;;9.77;;
68821;SDS011;55834;50.870;4.606;2024-03-08T01:09:59;22.95;;;11.27;;
68821;SDS011;55834;50.870;4.606;2024-03-08T01:12:25;22.52;;;10.73;;
68821;SDS011;55834;50.870;4.606;2024-03-08T01:14:51;23.52;;;10.82;;
68821;SDS011;55834;50.870;4.606;2024-03-08T01:17:17;19.77;;;10.10;;
68821;SDS011;55834;50.870;4.606;2024-03-08T01:19:42;16.40;;;8.40;;
68821;SDS011;55834;50.870;4.606;2024-03-08T01:24:35;25.77;;;11.38;;
68821;SDS011;55834;50.870;4.606;2024-03-08T01:27:00;19.60;;;9.53;;
68821;SDS011;55834;50.870;4.606;2024-03-08T01:29:26;21.25;;;9.65;;
68821;SDS011;55834;50.870;4.606;2024-03-08T01:31:54;21.17;;;12.40;;
68821;SDS011;55834;50.870;4.606;2024-03-08T01:34:21;25.10;;;12.20;;
68821;SDS011;55834;50.870;4.606;2024-03-08T01:36:47;20.38;;;11.88;;
68821;SDS011;55834;50.870;4.606;2024-03-08T01:39:13;22.25;;;12.43;;
68821;SDS011;55834;50.870;4.606;2024-03-08T01:41:39;22.00;;;11.20;;
68821;SDS011;55834;50.870;4.606;2024-03-08T01:44:05;19.27;;;11.30;;
68821;SDS011;55834;50.870;4.606;2024-03-08T01:46:32;17.95;;;9.70;;
68821;SDS011;55834;50.870;4.606;2024-03-08T01:48:58;16.65;;;9.23;;
68821;SDS011;55834;50.870;4.606;2024-03-08T01:51:25;20.55;;;11.38;;
68821;SDS011;55834;50.870;4.606;2024-03-08T01:53:53;21.27;;;13.10;;
68821;SDS011;55834;50.870;4.606;2024-03-08T01:56:22;23.55;;;12.68;;
68821;SDS011;55834;50.870;4.606;2024-03-08T01:58:50;17.88;;;10.90;;
68821;SDS011;55834;50.870;4.606;2024-03-08T02:01:16;20.50;;;9.98;;
68821;SDS011;55834;50.870;4.606;2024-03-08T02:03:42;19.00;;;12.32;;
68821;SDS011;55834;50.870;4.606;2024-03-08T02:06:11;21.30;;;13.63;;
68821;SDS011;55834;50.870;4.606;2024-03-08T02:08:37;19.52;;;11.60;;
68821;SDS011;55834;50.870;4.606;2024-03-08T02:11:03;18.90;;;11.43;;
68821;SDS011;55834;50.870;4.606;2024-03-08T02:13:29;22.33;;;13.20;;
68821;SDS011;55834;50.870;4.606;2024-03-08T02:15:58;19.45;;;11.60;;
68821;SDS011;55834;50.870;4.606;2024-03-08T02:18:26;19.60;;;11.23;;
68821;SDS011;55834;50.870;4.606;2024-03-08T02:20:54;20.83;;;12.43;;
68821;SDS011;55834;50.870;4.606;2024-03-08T02:23:20;21.73;;;10.80;;
68821;SDS011;55834;50.870;4.606;2024-03-08T02:25:46;18.38;;;11.75;;
68821;SDS011;55834;50.870;4.606;2024-03-08T02:28:15;18.77;;;10.80;;
68821;SDS011;55834;50.870;4.606;2024-03-08T02:30:43;20.23;;;10.93;;
68821;SDS011;55834;50.870;4.606;2024-03-08T02:33:09;22.08;;;11.45;;
68821;SDS011;55834;50.870;4.606;2024-03-08T02:35:35;20.50;;;11.80;;
68821;SDS011;55834;50.870;4.606;2024-03-08T02:38:01;19.13;;;11.68;;
68821;SDS011;55834;50.870;4.606;2024-03-08T02:40:28;22.67;;;11.90;;
68821;SDS011;55834;50.870;4.606;2024-03-08T02:42:54;19.92;;;11.18;;
68821;SDS011;55834;50.870;4.606;2024-03-08T02:45:19;19.87;;;11.03;;
68821;SDS011;55834;50.870;4.606;2024-03-08T02:47:45;20.33;;;12.05;;
68821;SDS011;55834;50.870;4.606;2024-03-08T02:50:11;20.63;;;10.70;;
68821;SDS011;55834;50.870;4.606;2024-03-08T02:52:37;21.10;;;12.10;;
68821;SDS011;55834;50.870;4.606;2024-03-08T02:55:02;20.85;;;12.48;;
68821;SDS011;55834;50.870;4.606;2024-03-08T02:57:28;24.35;;;13.60;;
68821;SDS011;55834;50.870;4.606;2024-03-08T02:59:54;22.00;;;13.20;;
68821;SDS011;55834;50.870;4.606;2024-03-08T03:02:19;22.60;;;14.05;;
68821;SDS011;55834;50.870;4.606;2024-03-08T03:04:45;23.42;;;13.32;;
68821;SDS011;55834;50.870;4.606;2024-03-08T03:07:10;22.23;;;12.60;;
68821;SDS011;55834;50.870;4.606;2024-03-08T03:09:36;22.27;;;13.07;;
68821;SDS011;55834;50.870;4.606;2024-03-08T03:12:02;22.95;;;12.82;;
68821;SDS011;55834;50.870;4.606;2024-03-08T03:14:27;22.58;;;12.38;;
68821;SDS011;55834;50.870;4.606;2024-03-08T03:16:53;24.63;;;13.10;;
68821;SDS011;55834;50.870;4.606;2024-03-08T03:19:19;18.70;;;11.35;;
68821;SDS011;55834;50.870;4.606;2024-03-08T03:21:45;20.00;;;12.60;;
68821;SDS011;55834;50.870;4.606;2024-03-08T03:24:11;21.63;;;12.82;;
68821;SDS011;55834;50.870;4.606;2024-03-08T03:26:37;22.60;;;12.88;;
68821;SDS011;55834;50.870;4.606;2024-03-08T03:29:04;21.73;;;12.73;;
68821;SDS011;55834;50.870;4.606;2024-03-08T03:31:31;19.10;;;12.02;;
68821;SDS011;55834;50.870;4.606;2024-03-08T03:33:57;19.58;;;12.45;;
68821;SDS011;55834;50.870;4.606;2024-03-08T03:36:31;21.38;;;12.40;;
68821;SDS011;55834;50.870;4.606;2024-03-08T03:38:56;19.63;;;12.15;;
68821;SDS011;55834;50.870;4.606;2024-03-08T03:41:31;21.65;;;13.23;;
68821;SDS011;55834;50.870;4.606;2024-03-08T03:43:56;22.70;;;12.95;;
68821;SDS011;55834;50.870;4.606;2024-03-08T03:46:22;23.02;;;12.35;;
68821;SDS011;55834;50.870;4.606;2024-03-08T03:48:48;21.67;;;12.53;;
68821;SDS011;55834;50.870;4.606;2024-03-08T03:51:13;22.03;;;12.37;;
68821;SDS011;55834;50.870;4.606;2024-03-08T03:53:40;22.75;;;13.00;;
68821;SDS011;55834;50.870;4.606;2024-03-08T03:56:06;26.05;;;13.48;;
68821;SDS011;55834;50.870;4.606;2024-03-08T03:58:32;25.40;;;13.88;;
68821;SDS011;55834;50.870;4.606;2024-03-08T04:00:58;21.13;;;11.45;;
68821;SDS011;55834;50.870;4.606;2024-03-08T04:03:23;19.13;;;11.90;;
68821;SDS011;55834;50.870;4.606;2024-03-08T04:05:48;18.98;;;12.50;;
68821;SDS011;55834;50.870;4.606;2024-03-08T04:08:14;22.87;;;13.37;;
68821;SDS011;55834;50.870;4.606;2024-03-08T04:10:40;21.00;;;12.00;;
68821;SDS011;55834;50.870;4.606;2024-03-08T04:13:07;22.70;;;14.15;;
68821;SDS011;55834;50.870;4.606;2024-03-08T04:15:34;23.92;;;12.60;;
68821;SDS011;55834;50.870;4.606;2024-03-08T04:18:00;20.83;;;12.48;;
68821;SDS011;55834;50.870;4.606;2024-03-08T04:20:25;23.23;;;11.40;;
68821;SDS011;55834;50.870;4.606;2024-03-08T04:22:51;27.55;;;13.00;;
68821;SDS011;55834;50.870;4.606;2024-03-08T04:25:17;21.88;;;12.10;;
68821;SDS011;55834;50.870;4.606;2024-03-08T04:27:42;20.27;;;12.30;;
68821;SDS011;55834;50.870;4.606;2024-03-08T04:30:08;19.27;;;11.97;;
68821;SDS011;55834;50.870;4.606;2024-03-08T04:32:34;22.88;;;12.70;;
68821;SDS011;55834;50.870;4.606;2024-03-08T04:34:59;21.80;;;12.38;;
68821;SDS011;55834;50.870;4.606;2024-03-08T04:37:28;21.90;;;12.32;;
68821;SDS011;55834;50.870;4.606;2024-03-08T04:39:57;20.88;;;10.95;;
68821;SDS011;55834;50.870;4.606;2024-03-08T04:42:23;20.63;;;12.13;;
68821;SDS011;55834;50.870;4.606;2024-03-08T04:44:49;23.67;;;11.50;;
68821;SDS011;55834;50.870;4.606;2024-03-08T04:47:14;22.63;;;12.43;;
68821;SDS011;55834;50.870;4.606;2024-03-08T04:49:39;22.83;;;12.77;;
68821;SDS011;55834;50.870;4.606;2024-03-08T04:52:05;25.48;;;13.25;;
68821;SDS011;55834;50.870;4.606;2024-03-08T04:54:32;19.48;;;10.68;;
68821;SDS011;55834;50.870;4.606;2024-03-08T04:56:58;22.27;;;12.45;;
68821;SDS011;55834;50.870;4.606;2024-03-08T04:59:25;21.05;;;11.45;;
68821;SDS011;55834;50.870;4.606;2024-03-08T05:01:52;22.08;;;13.57;;
68821;SDS011;55834;50.870;4.606;2024-03-08T05:04:17;21.75;;;12.27;;
68821;SDS011;55834;50.870;4.606;2024-03-08T05:06:42;25.17;;;13.67;;
68821;SDS011;55834;50.870;4.606;2024-03-08T05:09:08;21.40;;;11.77;;
68821;SDS011;55834;50.870;4.606;2024-03-08T05:11:39;20.67;;;11.85;;
68821;SDS011;55834;50.870;4.606;2024-03-08T05:14:05;20.02;;;11.93;;
68821;SDS011;55834;50.870;4.606;2024-03-08T05:16:31;23.77;;;13.15;;
68821;SDS011;55834;50.870;4.606;2024-03-08T05:18:56;19.90;;;10.75;;
68821;SDS011;55834;50.870;4.606;2024-03-08T05:21:22;26.40;;;13.13;;
68821;SDS011;55834;50.870;4.606;2024-03-08T05:23:48;25.75;;;12.68;;
68821;SDS011;55834;50.870;4.606;2024-03-08T05:26:15;21.15;;;12.43;;
68821;SDS011;55834;50.870;4.606;2024-03-08T05:28:40;23.23;;;12.35;;
68821;SDS011;55834;50.870;4.606;2024-03-08T05:31:06;22.73;;;12.82;;
68821;SDS011;55834;50.870;4.606;2024-03-08T05:33:31;22.25;;;12.77;;
68821;SDS011;55834;50.870;4.606;2024-03-08T05:35:59;19.42;;;11.25;;
68821;SDS011;55834;50.870;4.606;2024-03-08T05:38:25;21.05;;;11.23;;
68821;SDS011;55834;50.870;4.606;2024-03-08T05:40:51;24.80;;;13.23;;
68821;SDS011;55834;50.870;4.606;2024-03-08T05:43:16;21.25;;;10.32;;
68821;SDS011;55834;50.870;4.606;2024-03-08T05:45:44;21.85;;;11.98;;
68821;SDS011;55834;50.870;4.606;2024-03-08T05:48:10;21.63;;;11.77;;
68821;SDS011;55834;50.870;4.606;2024-03-08T05:50:37;20.80;;;11.73;;
68821;SDS011;55834;50.870;4.606;2024-03-08T05:53:03;21.83;;;11.60;;
68821;SDS011;55834;50.870;4.606;2024-03-08T05:55:31;24.65;;;11.80;;
68821;SDS011;55834;50.870;4.606;2024-03-08T05:58:02;23.52;;;12.55;;
68821;SDS011;55834;50.870;4.606;2024-03-08T06:00:28;23.23;;;13.43;;
68821;SDS011;55834;50.870;4.606;2024-03-08T06:02:53;21.98;;;12.38;;
68821;SDS011;55834;50.870;4.606;2024-03-08T06:05:19;23.83;;;12.67;;
68821;SDS011;55834;50.870;4.606;2024-03-08T06:07:44;20.77;;;11.50;;
68821;SDS011;55834;50.870;4.606;2024-03-08T06:10:10;22.05;;;12.43;;
68821;SDS011;55834;50.870;4.606;2024-03-08T06:12:39;23.98;;;12.50;;
68821;SDS011;55834;50.870;4.606;2024-03-08T06:15:09;22.38;;;12.13;;
68821;SDS011;55834;50.870;4.606;2024-03-08T06:17:38;25.23;;;12.75;;
68821;SDS011;55834;50.870;4.606;2024-03-08T06:20:03;18.63;;;10.25;;
68821;SDS011;55834;50.870;4.606;2024-03-08T06:22:35;22.05;;;12.10;;
68821;SDS011;55834;50.870;4.606;2024-03-08T06:25:02;21.20;;;11.05;;
68821;SDS011;55834;50.870;4.606;2024-03-08T06:27:27;22.48;;;11.82;;
68821;SDS011;55834;50.870;4.606;2024-03-08T06:29:53;24.33;;;14.13;;
68821;SDS011;55834;50.870;4.606;2024-03-08T06:32:18;25.35;;;12.85;;
68821;SDS011;55834;50.870;4.606;2024-03-08T06:34:43;24.05;;;11.93;;
68821;SDS011;55834;50.870;4.606;2024-03-08T06:37:09;25.73;;;14.43;;
68821;SDS011;55834;50.870;4.606;2024-03-08T06:39:34;28.15;;;13.88;;
68821;SDS011;55834;50.870;4.606;2024-03-08T06:42:00;32.47;;;15.15;;
68821;SDS011;55834;50.870;4.606;2024-03-08T06:44:26;30.40;;;14.70;;
68821;SDS011;55834;50.870;4.606;2024-03-08T06:46:52;23.45;;;11.93;;
68821;SDS011;55834;50.870;4.606;2024-03-08T06:49:17;23.33;;;12.60;;
68821;SDS011;55834;50.870;4.606;2024-03-08T06:51:42;31.73;;;15.43;;
68821;SDS011;55834;50.870;4.606;2024-03-08T06:54:08;29.30;;;13.10;;
68821;SDS011;55834;50.870;4.606;2024-03-08T06:56:37;24.52;;;12.18;;
68821;SDS011;55834;50.870;4.606;2024-03-08T06:59:03;33.97;;;15.60;;
68821;SDS011;55834;50.870;4.606;2024-03-08T07:01:29;27.15;;;13.48;;
68821;SDS011;55834;50.870;4.606;2024-03-08T07:04:00;31.67;;;16.27;;
68821;SDS011;55834;50.870;4.606;2024-03-08T07:06:30;31.45;;;13.90;;
68821;SDS011;55834;50.870;4.606;2024-03-08T07:08:58;33.42;;;15.48;;
68821;SDS011;55834;50.870;4.606;2024-03-08T07:11:24;33.03;;;14.20;;
68821;SDS011;55834;50.870;4.606;2024-03-08T07:13:49;22.33;;;10.82;;
68821;SDS011;55834;50.870;4.606;2024-03-08T07:16:15;29.03;;;14.63;;
68821;SDS011;55834;50.870;4.606;2024-03-08T07:18:40;23.73;;;12.27;;
68821;SDS011;55834;50.870;4.606;2024-03-08T07:23:33;27.52;;;12.65;;
68821;SDS011;55834;50.870;4.606;2024-03-08T07:26:15;26.33;;;12.20;;
68821;SDS011;55834;50.870;4.606;2024-03-08T07:28:40;24.38;;;12.45;;
68821;SDS011;55834;50.870;4.606;2024-03-08T07:31:06;29.83;;;13.25;;
68821;SDS011;55834;50.870;4.606;2024-03-08T07:33:58;23.17;;;11.05;;
68821;SDS011;55834;50.870;4.606;2024-03-08T07:36:23;23.25;;;11.50;;
68821;SDS011;55834;50.870;4.606;2024-03-08T07:38:49;27.70;;;14.43;;
68821;SDS011;55834;50.870;4.606;2024-03-08T07:41:15;22.92;;;11.52;;
68821;SDS011;55834;50.870;4.606;2024-03-08T07:43:41;28.73;;;13.52;;
68821;SDS011;55834;50.870;4.606;2024-03-08T07:46:06;23.10;;;11.70;;
68821;SDS011;55834;50.870;4.606;2024-03-08T07:48:34;25.15;;;14.40;;
68821;SDS011;55834;50.870;4.606;2024-03-08T07:51:01;21.88;;;12.45;;
68821;SDS011;55834;50.870;4.606;2024-03-08T07:53:28;24.30;;;11.45;;
68821;SDS011;55834;50.870;4.606;2024-03-08T07:55:53;21.90;;;11.68;;
68821;SDS011;55834;50.870;4.606;2024-03-08T07:58:19;24.92;;;12.45;;
68821;SDS011;55834;50.870;4.606;2024-03-08T08:00:44;22.77;;;11.85;;
68821;SDS011;55834;50.870;4.606;2024-03-08T08:03:09;18.10;;;10.90;;
68821;SDS011;55834;50.870;4.606;2024-03-08T08:05:35;19.55;;;10.73;;
68821;SDS011;55834;50.870;4.606;2024-03-08T08:08:02;24.30;;;11.77;;
68821;SDS011;55834;50.870;4.606;2024-03-08T08:10:31;20.65;;;11.05;;
68821;SDS011;55834;50.870;4.606;2024-03-08T08:12:57;19.17;;;9.98;;
68821;SDS011;55834;50.870;4.606;2024-03-08T08:15:23;25.02;;;11.63;;
68821;SDS011;55834;50.870;4.606;2024-03-08T08:17:49;23.20;;;11.07;;
68821;SDS011;55834;50.870;4.606;2024-03-08T08:20:14;20.08;;;10.93;;
68821;SDS011;55834;50.870;4.606;2024-03-08T08:22:40;23.17;;;12.18;;
68821;SDS011;55834;50.870;4.606;2024-03-08T08:25:09;22.98;;;11.00;;
68821;SDS011;55834;50.870;4.606;2024-03-08T08:27:38;20.73;;;10.32;;
68821;SDS011;55834;50.870;4.606;2024-03-08T08:30:05;25.55;;;12.52;;
68821;SDS011;55834;50.870;4.606;2024-03-08T08:32:33;17.75;;;9.52;;
68821;SDS011;55834;50.870;4.606;2024-03-08T08:35:02;18.02;;;9.50;;
68821;SDS011;55834;50.870;4.606;2024-03-08T08:37:29;23.48;;;10.25;;
68821;SDS011;55834;50.870;4.606;2024-03-08T08:39:56;18.23;;;10.05;;
68821;SDS011;55834;50.870;4.606;2024-03-08T08:42:22;25.33;;;11.82;;
68821;SDS011;55834;50.870;4.606;2024-03-08T08:44:48;23.00;;;12.30;;
68821;SDS011;55834;50.870;4.606;2024-03-08T08:47:14;17.63;;;9.05;;
68821;SDS011;55834;50.870;4.606;2024-03-08T08:49:43;19.38;;;10.00;;
68821;SDS011;55834;50.870;4.606;2024-03-08T08:52:11;22.63;;;11.60;;
68821;SDS011;55834;50.870;4.606;2024-03-08T08:54:36;19.00;;;10.40;;
68821;SDS011;55834;50.870;4.606;2024-03-08T08:57:02;21.13;;;11.10;;
68821;SDS011;55834;50.870;4.606;2024-03-08T08:59:32;20.17;;;10.25;;
68821;SDS011;55834;50.870;4.606;2024-03-08T09:02:06;21.45;;;11.50;;
68821;SDS011;55834;50.870;4.606;2024-03-08T09:04:32;14.85;;;9.05;;
68821;SDS011;55834;50.870;4.606;2024-03-08T09:06:57;19.63;;;10.85;;
68821;SDS011;55834;50.870;4.606;2024-03-08T09:09:23;15.57;;;9.43;;
68821;SDS011;55834;50.870;4.606;2024-03-08T09:11:50;17.50;;;11.65;;
68821;SDS011;55834;50.870;4.606;2024-03-08T09:14:16;18.20;;;11.07;;
68821;SDS011;55834;50.870;4.606;2024-03-08T09:16:41;16.85;;;9.70;;
68821;SDS011;55834;50.870;4.606;2024-03-08T09:19:07;16.97;;;9.47;;
68821;SDS011;55834;50.870;4.606;2024-03-08T09:21:33;21.08;;;10.43;;
68821;SDS011;55834;50.870;4.606;2024-03-08T09:24:00;15.07;;;9.38;;
68821;SDS011;55834;50.870;4.606;2024-03-08T09:26:26;17.77;;;10.18;;
68821;SDS011;55834;50.870;4.606;2024-03-08T09:28:51;14.57;;;8.52;;
68821;SDS011;55834;50.870;4.606;2024-03-08T09:31:17;17.08;;;8.65;;
68821;SDS011;55834;50.870;4.606;2024-03-08T09:33:42;17.87;;;9.97;;
68821;SDS011;55834;50.870;4.606;2024-03-08T09:36:08;17.27;;;10.33;;
68821;SDS011;55834;50.870;4.606;2024-03-08T09:38:33;14.75;;;8.02;;
68821;SDS011;55834;50.870;4.606;2024-03-08T09:41:02;18.95;;;9.15;;
68821;SDS011;55834;50.870;4.606;2024-03-08T09:43:29;15.38;;;8.65;;
68821;SDS011;55834;50.870;4.606;2024-03-08T09:45:55;17.48;;;10.52;;
68821;SDS011;55834;50.870;4.606;2024-03-08T09:48:22;17.33;;;9.13;;
68821;SDS011;55834;50.870;4.606;2024-03-08T09:50:48;14.98;;;8.93;;
68821;SDS011;55834;50.870;4.606;2024-03-08T09:53:14;15.02;;;10.05;;
68821;SDS011;55834;50.870;4.606;2024-03-08T09:55:40;17.65;;;10.23;;
68821;SDS011;55834;50.870;4.606;2024-03-08T09:58:11;16.48;;;9.35;;
68821;SDS011;55834;50.870;4.606;2024-03-08T10:00:46;16.67;;;8.48;;
68821;SDS011;55834;50.870;4.606;2024-03-08T10:03:12;13.10;;;8.10;;
68821;SDS011;55834;50.870;4.606;2024-03-08T10:05:39;18.10;;;10.02;;
68821;SDS011;55834;50.870;4.606;2024-03-08T10:08:06;16.75;;;9.50;;
68821;SDS011;55834;50.870;4.606;2024-03-08T10:10:33;15.18;;;9.82;;
68821;SDS011;55834;50.870;4.606;2024-03-08T10:12:59;17.48;;;10.52;;
68821;SDS011;55834;50.870;4.606;2024-03-08T10:15:28;14.13;;;9.13;;
68821;SDS011;55834;50.870;4.606;2024-03-08T10:17:55;16.35;;;9.48;;
68821;SDS011;55834;50.870;4.606;2024-03-08T10:20:22;15.27;;;8.63;;
68821;SDS011;55834;50.870;4.606;2024-03-08T10:22:49;15.80;;;9.88;;
68821;SDS011;55834;50.870;4.606;2024-03-08T10:25:14;16.27;;;9.90;;
68821;SDS011;55834;50.870;4.606;2024-03-08T10:27:40;16.33;;;8.90;;
68821;SDS011;55834;50.870;4.606;2024-03-08T10:30:06;14.68;;;8.63;;
68821;SDS011;55834;50.870;4.606;2024-03-08T10:32:35;15.07;;;8.57;;
68821;SDS011;55834;50.870;4.606;2024-03-08T10:35:01;15.50;;;9.77;;
68821;SDS011;55834;50.870;4.606;2024-03-08T10:37:26;17.02;;;9.80;;
68821;SDS011;55834;50.870;4.606;2024-03-08T10:40:03;14.90;;;8.43;;
68821;SDS011;55834;50.870;4.606;2024-03-08T10:42:35;16.98;;;8.77;;
68821;SDS011;55834;50.870;4.606;2024-03-08T10:45:47;14.55;;;9.52;;
68821;SDS011;55834;50.870;4.606;2024-03-08T10:50:56;16.30;;;10.13;;
68821;SDS011;55834;50.870;4.606;2024-03-08T10:53:22;16.55;;;9.00;;
68821;SDS011;55834;50.870;4.606;2024-03-08T10:55:49;15.45;;;7.90;;
68821;SDS011;55834;50.870;4.606;2024-03-08T10:58:18;14.98;;;8.85;;
68821;SDS011;55834;50.870;4.606;2024-03-08T11:06:13;13.60;;;8.98;;
68821;SDS011;55834;50.870;4.606;2024-03-08T11:08:41;16.30;;;9.30;;
68821;SDS011;55834;50.870;4.606;2024-03-08T11:11:23;16.33;;;9.55;;
68821;SDS011;55834;50.870;4.606;2024-03-08T11:13:52;14.13;;;7.95;;
68821;SDS011;55834;50.870;4.606;2024-03-08T11:18:49;16.77;;;8.80;;
68821;SDS011;55834;50.870;4.606;2024-03-08T11:21:18;14.23;;;8.80;;
68821;SDS011;55834;50.870;4.606;2024-03-08T11:23:43;15.40;;;10.30;;
68821;SDS011;55834;50.870;4.606;2024-03-08T11:26:19;14.63;;;7.90;;
68821;SDS011;55834;50.870;4.606;2024-03-08T11:28:45;15.90;;;8.73;;
68821;SDS011;55834;50.870;4.606;2024-03-08T11:33:39;15.25;;;9.18;;
68821;SDS011;55834;50.870;4.606;2024-03-08T11:36:12;15.82;;;9.60;;
68821;SDS011;55834;50.870;4.606;2024-03-08T11:38:47;13.95;;;8.48;;
68821;SDS011;55834;50.870;4.606;2024-03-08T11:41:14;15.75;;;8.95;;
68821;SDS011;55834;50.870;4.606;2024-03-08T11:43:49;12.63;;;8.30;;
68821;SDS011;55834;50.870;4.606;2024-03-08T11:46:26;18.60;;;9.88;;
68821;SDS011;55834;50.870;4.606;2024-03-08T11:48:54;17.88;;;10.65;;
68821;SDS011;55834;50.870;4.606;2024-03-08T11:51:21;15.38;;;8.63;;
68821;SDS011;55834;50.870;4.606;2024-03-08T11:53:48;14.93;;;7.63;;
68821;SDS011;55834;50.870;4.606;2024-03-08T11:56:15;13.10;;;9.13;;
68821;SDS011;55834;50.870;4.606;2024-03-08T11:58:41;12.50;;;8.40;;
68821;SDS011;55834;50.870;4.606;2024-03-08T12:01:17;14.27;;;8.85;;
68821;SDS011;55834;50.870;4.606;2024-03-08T12:03:43;14.68;;;8.23;;
68821;SDS011;55834;50.870;4.606;2024-03-08T12:06:08;14.15;;;9.45;;
68821;SDS011;55834;50.870;4.606;2024-03-08T12:08:35;14.05;;;8.75;;
68821;SDS011;55834;50.870;4.606;2024-03-08T12:11:00;15.80;;;9.90;;
68821;SDS011;55834;50.870;4.606;2024-03-08T12:13:30;13.80;;;8.68;;
68821;SDS011;55834;50.870;4.606;2024-03-08T12:16:05;16.27;;;8.75;;
68821;SDS011;55834;50.870;4.606;2024-03-08T12:18:35;14.18;;;9.40;;
68821;SDS011;55834;50.870;4.606;2024-03-08T12:21:09;13.27;;;8.43;;
68821;SDS011;55834;50.870;4.606;2024-03-08T12:23:37;14.15;;;8.20;;
68821;SDS011;55834;50.870;4.606;2024-03-08T12:28:38;13.77;;;7.93;;
68821;SDS011;55834;50.870;4.606;2024-03-08T12:31:06;13.85;;;8.25;;
68821;SDS011;55834;50.870;4.606;2024-03-08T12:33:35;12.98;;;7.55;;
68821;SDS011;55834;50.870;4.606;2024-03-08T12:36:02;16.83;;;9.20;;
68821;SDS011;55834;50.870;4.606;2024-03-08T12:38:32;12.98;;;8.07;;
68821;SDS011;55834;50.870;4.606;2024-03-08T12:41:00;13.18;;;8.45;;
68821;SDS011;55834;50.870;4.606;2024-03-08T12:43:29;13.75;;;8.65;;
68821;SDS011;55834;50.870;4.606;2024-03-08T12:45:55;11.45;;;7.18;;
68821;SDS011;55834;50.870;4.606;2024-03-08T12:48:21;17.40;;;9.60;;
68821;SDS011;55834;50.870;4.606;2024-03-08T12:50:46;18.00;;;7.97;;
68821;SDS011;55834;50.870;4.606;2024-03-08T12:53:13;19.02;;;8.27;;
68821;SDS011;55834;50.870;4.606;2024-03-08T12:55:39;14.68;;;7.68;;
68821;SDS011;55834;50.870;4.606;2024-03-08T12:58:05;17.27;;;8.82;;
68821;SDS011;55834;50.870;4.606;2024-03-08T13:00:32;14.88;;;8.82;;
68821;SDS011;55834;50.870;4.606;2024-03-08T13:03:01;15.30;;;8.57;;
68821;SDS011;55834;50.870;4.606;2024-03-08T13:05:27;13.60;;;8.15;;
68821;SDS011;55834;50.870;4.606;2024-03-08T13:07:53;15.65;;;9.25;;
68821;SDS011;55834;50.870;4.606;2024-03-08T13:10:19;15.70;;;7.88;;
68821;SDS011;55834;50.870;4.606;2024-03-08T13:12:45;12.52;;;7.88;;
68821;SDS011;55834;50.870;4.606;2024-03-08T13:15:11;15.30;;;8.82;;
68821;SDS011;55834;50.870;4.606;2024-03-08T13:17:40;16.85;;;8.90;;
68821;SDS011;55834;50.870;4.606;2024-03-08T13:20:07;14.98;;;8.73;;
68821;SDS011;55834;50.870;4.606;2024-03-08T13:22:34;13.52;;;7.68;;
68821;SDS011;55834;50.870;4.606;2024-03-08T13:25:00;14.23;;;8.27;;
68821;SDS011;55834;50.870;4.606;2024-03-08T13:27:29;14.35;;;8.80;;
68821;SDS011;55834;50.870;4.606;2024-03-08T13:29:54;15.52;;;7.72;;
68821;SDS011;55834;50.870;4.606;2024-03-08T13:32:20;14.85;;;7.80;;
68821;SDS011;55834;50.870;4.606;2024-03-08T13:34:45;14.07;;;8.80;;
68821;SDS011;55834;50.870;4.606;2024-03-08T13:37:12;11.77;;;7.68;;
68821;SDS011;55834;50.870;4.606;2024-03-08T13:39:41;14.70;;;8.23;;
68821;SDS011;55834;50.870;4.606;2024-03-08T13:42:08;16.48;;;9.48;;
68821;SDS011;55834;50.870;4.606;2024-03-08T13:44:37;16.02;;;9.07;;
68821;SDS011;55834;50.870;4.606;2024-03-08T13:47:03;16.30;;;9.40;;
68821;SDS011;55834;50.870;4.606;2024-03-08T13:49:29;17.23;;;9.23;;
68821;SDS011;55834;50.870;4.606;2024-03-08T13:51:56;15.35;;;8.80;;
68821;SDS011;55834;50.870;4.606;2024-03-08T13:54:23;17.08;;;8.77;;
68821;SDS011;55834;50.870;4.606;2024-03-08T13:56:49;13.80;;;8.55;;
68821;SDS011;55834;50.870;4.606;2024-03-08T13:59:17;20.48;;;10.75;;
68821;SDS011;55834;50.870;4.606;2024-03-08T14:01:43;14.18;;;7.80;;
68821;SDS011;55834;50.870;4.606;2024-03-08T14:04:09;17.80;;;10.15;;
68821;SDS011;55834;50.870;4.606;2024-03-08T14:06:34;14.90;;;9.02;;
68821;SDS011;55834;50.870;4.606;2024-03-08T14:09:00;13.48;;;7.30;;
68821;SDS011;55834;50.870;4.606;2024-03-08T14:11:26;12.07;;;6.78;;
68821;SDS011;55834;50.870;4.606;2024-03-08T14:13:52;12.35;;;6.93;;
68821;SDS011;55834;50.870;4.606;2024-03-08T14:16:18;13.65;;;8.68;;
68821;SDS011;55834;50.870;4.606;2024-03-08T14:18:44;14.95;;;10.57;;
68821;SDS011;55834;50.870;4.606;2024-03-08T14:21:10;14.85;;;8.40;;
68821;SDS011;55834;50.870;4.606;2024-03-08T14:23:35;13.45;;;7.53;;
68821;SDS011;55834;50.870;4.606;2024-03-08T14:26:01;14.63;;;8.48;;
68821;SDS011;55834;50.870;4.606;2024-03-08T14:28:27;15.63;;;9.43;;
68821;SDS011;55834;50.870;4.606;2024-03-08T14:30:53;15.97;;;9.87;;
68821;SDS011;55834;50.870;4.606;2024-03-08T14:33:19;14.23;;;7.90;;
68821;SDS011;55834;50.870;4.606;2024-03-08T14:35:44;16.33;;;9.45;;
68821;SDS011;55834;50.870;4.606;2024-03-08T14:38:11;13.60;;;8.35;;
68821;SDS011;55834;50.870;4.606;2024-03-08T14:40:38;15.25;;;8.60;;
68821;SDS011;55834;50.870;4.606;2024-03-08T14:43:03;14.65;;;8.88;;
68821;SDS011;55834;50.870;4.606;2024-03-08T14:45:29;14.65;;;8.27;;